createdAt,value
2022-08-26T00:01:11.621Z,99855.13
2022-08-26T00:03:39.229Z,99856.13
2022-08-26T00:06:07.106Z,99852.25
2022-08-26T00:08:35.576Z,99852.56
2022-08-26T00:11:04.956Z,99849.41
2022-08-26T00:13:32.947Z,99860.03
2022-08-26T00:16:00.078Z,99848.41
2022-08-26T00:18:27.315Z,99853.81
2022-08-26T00:20:57.485Z,99854.09
2022-08-26T00:23:24.062Z,99852.19
2022-08-26T00:25:51.522Z,99854.59
2022-08-26T00:28:18.976Z,99852.88
2022-08-26T00:30:49.182Z,99855.13
2022-08-26T00:33:20.112Z,99858.75
2022-08-26T00:35:47.630Z,99856.00
2022-08-26T00:38:14.863Z,99855.78
2022-08-26T00:40:48.095Z,99857.72
2022-08-26T00:43:15.979Z,99856.34
2022-08-26T00:45:56.810Z,99858.84
2022-08-26T00:48:25.665Z,99862.84
2022-08-26T00:51:03.211Z,99864.72
2022-08-26T00:53:35.883Z,99857.75
2022-08-26T00:56:09.920Z,99860.41
2022-08-26T00:58:42.975Z,99862.06
2022-08-26T01:01:11.589Z,99864.44
2022-08-26T01:03:41.769Z,99860.88
2022-08-26T01:06:11.485Z,99860.78
2022-08-26T01:08:39.980Z,99865.41
2022-08-26T01:11:06.898Z,99861.00
2022-08-26T01:13:36.879Z,99860.38
2022-08-26T01:16:06.170Z,99856.91
2022-08-26T01:18:33.322Z,99859.53
2022-08-26T01:21:24.869Z,99861.47
2022-08-26T01:23:57.555Z,99858.84
2022-08-26T01:26:32.886Z,99861.47
2022-08-26T01:29:03.063Z,99855.25
2022-08-26T01:31:36.575Z,99858.53
2022-08-26T01:34:18.779Z,99855.38
2022-08-26T01:36:51.609Z,99858.94
2022-08-26T01:39:19.228Z,99857.56
2022-08-26T01:41:47.406Z,99852.88
2022-08-26T01:44:22.517Z,99855.53
2022-08-26T01:46:50.745Z,99854.56
2022-08-26T01:49:18.766Z,99852.28
2022-08-26T01:51:48.004Z,99855.53
2022-08-26T01:54:15.960Z,99861.00
2022-08-26T01:56:42.843Z,99858.09
2022-08-26T01:59:14.796Z,99862.75
2022-08-26T02:01:41.529Z,99862.06
2022-08-26T02:04:33.819Z,99871.91
2022-08-26T02:07:04.659Z,99871.47
2022-08-26T02:09:31.454Z,99870.44
2022-08-26T02:12:01.003Z,99880.91
2022-08-26T02:14:37.117Z,99874.41
2022-08-26T02:17:10.855Z,99873.25
2022-08-26T02:19:41.187Z,99874.78
2022-08-26T02:22:14.934Z,99868.25
2022-08-26T02:24:58.425Z,99871.47
2022-08-26T02:27:32.361Z,99869.22
2022-08-26T02:30:14.738Z,99874.38
2022-08-26T02:32:44.434Z,99883.81
2022-08-26T02:35:13.676Z,99873.25
2022-08-26T02:37:44.954Z,99880.50
2022-08-26T02:40:14.449Z,99876.44
2022-08-26T02:42:41.331Z,99878.97
2022-08-26T02:45:10.845Z,99879.75
2022-08-26T02:47:37.414Z,99882.50
2022-08-26T02:50:04.639Z,99882.50
2022-08-26T02:52:31.032Z,99888.22
2022-08-26T02:54:58.765Z,99887.88
2022-08-26T02:57:26.053Z,99887.50
2022-08-26T02:59:52.723Z,99886.31
2022-08-26T03:02:19.305Z,99874.16
2022-08-26T03:04:57.975Z,99875.22
2022-08-26T03:07:29.106Z,99877.63
2022-08-26T03:09:56.819Z,99876.59
2022-08-26T03:12:23.956Z,99873.25
2022-08-26T03:14:52.311Z,99869.47
2022-08-26T03:17:18.735Z,99873.16
2022-08-26T03:19:45.121Z,99877.63
2022-08-26T03:22:11.990Z,99876.94
2022-08-26T03:24:41.097Z,99877.75
2022-08-26T03:27:10.835Z,99891.16
2022-08-26T03:29:57.207Z,99886.25
2022-08-26T03:32:23.844Z,99878.47
2022-08-26T03:34:53.378Z,99882.06
2022-08-26T03:37:20.835Z,99881.78
2022-08-26T03:39:47.706Z,99876.63
2022-08-26T03:42:14.932Z,99884.59
2022-08-26T03:44:42.243Z,99890.03
2022-08-26T03:47:09.263Z,99880.72
2022-08-26T03:49:35.960Z,99888.00
2022-08-26T03:52:03.993Z,99881.28
2022-08-26T03:54:30.643Z,99884.13
2022-08-26T03:56:57.064Z,99885.09
2022-08-26T03:59:23.464Z,99887.31
2022-08-26T04:01:52.169Z,99890.25
2022-08-26T04:04:18.733Z,99894.00
2022-08-26T04:06:50.156Z,99892.16
2022-08-26T04:09:20.905Z,99897.13
2022-08-26T04:11:50.590Z,99884.88
2022-08-26T04:14:20.759Z,99893.75
2022-08-26T04:16:48.200Z,99888.56
2022-08-26T04:19:15.630Z,99895.25
2022-08-26T04:21:42.796Z,99892.00
2022-08-26T04:24:12.049Z,99898.78
2022-08-26T04:26:42.842Z,99898.81
2022-08-26T04:29:16.307Z,99888.66
2022-08-26T04:31:42.852Z,99889.88
2022-08-26T04:34:10.869Z,99886.56
2022-08-26T04:36:37.756Z,99886.78
2022-08-26T04:39:05.374Z,99893.91
2022-08-26T04:41:32.515Z,99887.22
2022-08-26T04:43:58.948Z,99897.56
2022-08-26T04:46:25.940Z,99889.19
2022-08-26T04:48:53.696Z,99888.38
2022-08-26T04:51:27.223Z,99894.63
2022-08-26T04:53:58.954Z,99890.28
2022-08-26T04:56:32.558Z,99890.69
2022-08-26T04:59:00.846Z,99895.41
2022-08-26T05:01:27.388Z,99893.88
2022-08-26T05:03:54.760Z,99898.44
2022-08-26T05:06:21.266Z,99899.69
2022-08-26T05:08:48.520Z,99906.88
2022-08-26T05:11:15.330Z,99904.81
2022-08-26T05:13:41.869Z,99911.75
2022-08-26T05:16:11.757Z,99912.81
2022-08-26T05:18:39.499Z,99917.06
2022-08-26T05:21:06.859Z,99911.63
2022-08-26T05:23:35.562Z,99910.03
2022-08-26T05:26:02.076Z,99922.44
2022-08-26T05:28:31.546Z,99914.47
2022-08-26T05:30:58.700Z,99926.59
2022-08-26T05:33:25.321Z,99925.31
2022-08-26T05:35:51.869Z,99922.00
2022-08-26T05:38:20.748Z,99929.81
2022-08-26T05:40:52.556Z,99929.69
2022-08-26T05:43:20.488Z,99934.69
2022-08-26T05:45:49.272Z,99935.34
2022-08-26T05:48:22.846Z,99936.06
2022-08-26T05:50:53.393Z,99937.09
2022-08-26T05:53:22.207Z,99941.25
2022-08-26T05:55:52.508Z,99947.66
2022-08-26T05:58:21.646Z,99950.63
2022-08-26T06:01:01.954Z,99952.00
2022-08-26T06:03:31.621Z,99953.28
2022-08-26T06:05:58.325Z,99952.47
2022-08-26T06:08:25.054Z,99955.50
2022-08-26T06:10:59.326Z,99952.16
2022-08-26T06:13:27.396Z,99962.06
2022-08-26T06:15:59.120Z,99956.03
2022-08-26T06:18:32.601Z,99952.53
2022-08-26T06:20:59.530Z,99949.28
2022-08-26T06:23:47.575Z,99949.16
2022-08-26T06:26:16.066Z,99952.63
2022-08-26T06:28:45.479Z,99953.16
2022-08-26T06:31:13.194Z,99954.56
2022-08-26T06:33:39.760Z,99953.75
2022-08-26T06:36:06.780Z,99956.56
2022-08-26T06:38:33.868Z,99956.97
2022-08-26T06:41:03.012Z,99956.56
2022-08-26T06:43:29.660Z,99953.50
2022-08-26T06:46:05.344Z,99956.72
2022-08-26T06:48:32.140Z,99954.63
2022-08-26T06:51:04.464Z,99956.13
2022-08-26T06:53:30.927Z,99956.66
2022-08-26T06:55:57.352Z,99960.44
2022-08-26T06:58:23.874Z,99953.16
2022-08-26T07:00:51.066Z,99954.44
2022-08-26T07:03:18.131Z,99953.97
2022-08-26T07:05:44.697Z,99959.31
2022-08-26T07:08:12.049Z,99961.66
2022-08-26T07:10:38.689Z,99965.94
2022-08-26T07:13:05.907Z,99970.41
2022-08-26T07:15:36.070Z,99967.88
2022-08-26T07:18:02.980Z,99971.56
2022-08-26T07:20:29.499Z,99974.88
2022-08-26T07:22:56.105Z,99974.78
2022-08-26T07:25:22.572Z,99985.09
2022-08-26T07:27:54.264Z,99984.13
2022-08-26T07:30:21.146Z,99992.94
2022-08-26T07:32:48.229Z,99986.81
2022-08-26T07:35:14.803Z,99979.94
2022-08-26T07:37:42.240Z,99977.78
2022-08-26T07:40:09.455Z,99978.72
2022-08-26T07:42:36.139Z,99986.75
2022-08-26T07:45:02.648Z,99986.59
2022-08-26T07:47:29.254Z,99985.94
2022-08-26T07:49:57.440Z,99986.59
2022-08-26T07:52:27.178Z,99989.69
2022-08-26T07:54:55.486Z,99982.13
2022-08-26T07:57:21.956Z,99990.47
2022-08-26T07:59:50.861Z,99998.13
2022-08-26T08:02:17.349Z,99987.38
2022-08-26T08:04:43.854Z,99989.94
2022-08-26T08:07:11.615Z,99983.91
2022-08-26T08:09:38.489Z,99993.13
2022-08-26T08:12:07.540Z,99987.22
2022-08-26T08:14:36.473Z,99987.78
2022-08-26T08:17:04.260Z,99989.44
2022-08-26T08:19:36.941Z,99987.44
2022-08-26T08:22:17.019Z,99985.72
2022-08-26T08:24:44.320Z,99982.50
2022-08-26T08:27:10.795Z,99983.41
2022-08-26T08:29:37.803Z,99980.25
2022-08-26T08:32:04.971Z,99984.81
2022-08-26T08:34:32.162Z,99995.31
2022-08-26T08:36:59.401Z,99991.00
2022-08-26T08:39:26.940Z,99988.53
2022-08-26T08:42:23.576Z,99987.16
2022-08-26T08:44:54.189Z,99989.59
2022-08-26T08:47:31.924Z,99987.19
2022-08-26T08:50:03.534Z,99977.06
2022-08-26T08:52:37.282Z,99983.53
2022-08-26T08:55:05.840Z,99975.03
2022-08-26T08:58:15.804Z,99979.81
2022-08-26T09:00:54.071Z,99973.81
2022-08-26T09:03:42.546Z,99972.03
2022-08-26T09:06:17.027Z,99971.59
2022-08-26T09:08:47.262Z,99972.19
2022-08-26T09:11:18.778Z,99963.16
2022-08-26T09:13:51.212Z,99966.09
2022-08-26T09:16:40.976Z,99977.50
2022-08-26T09:19:37.055Z,99978.94
2022-08-26T09:22:08.810Z,99962.31
2022-08-26T09:24:41.652Z,99969.00
2022-08-26T09:27:08.718Z,99961.69
2022-08-26T09:29:44.154Z,99962.66
2022-08-26T09:32:24.142Z,99966.25
2022-08-26T09:35:00.428Z,99961.56
2022-08-26T09:37:40.049Z,99958.84
2022-08-26T09:40:27.648Z,99963.59
2022-08-26T09:43:22.812Z,99958.81
2022-08-26T09:45:58.411Z,99952.56
2022-08-26T09:48:31.867Z,99941.63
2022-08-26T09:51:05.656Z,99941.75
2022-08-26T09:54:00.012Z,99942.81
2022-08-26T09:56:28.550Z,99937.94
2022-08-26T09:58:56.586Z,99937.81
2022-08-26T10:01:22.962Z,99926.75
2022-08-26T10:03:51.372Z,99922.69
2022-08-26T10:06:17.836Z,99918.34
2022-08-26T10:08:51.253Z,99914.44
2022-08-26T10:11:42.276Z,99908.84
2022-08-26T10:14:29.956Z,99898.66
2022-08-26T10:17:05.347Z,99904.03
2022-08-26T10:19:56.626Z,99900.19
2022-08-26T10:23:00.891Z,99894.03
2022-08-26T10:25:59.095Z,99886.28
2022-08-26T10:28:50.258Z,99884.47
2022-08-26T10:31:29.216Z,99881.16
2022-08-26T10:33:58.848Z,99873.53
2022-08-26T10:37:10.595Z,99878.50
2022-08-26T10:39:47.016Z,99868.19
2022-08-26T10:42:28.816Z,99864.06
2022-08-26T10:45:00.792Z,99866.75
2022-08-26T10:47:43.319Z,99871.88
2022-08-26T10:50:10.741Z,99870.25
2022-08-26T10:53:00.295Z,99866.72
2022-08-26T10:55:36.419Z,99871.66
2022-08-26T10:58:31.828Z,99870.47
2022-08-26T11:01:27.901Z,99865.50
2022-08-26T11:04:22.846Z,99851.06
2022-08-26T11:06:49.736Z,99850.44
2022-08-26T11:09:44.836Z,99858.66
2022-08-26T11:12:49.157Z,99847.03
2022-08-26T11:15:24.542Z,99842.00
2022-08-26T11:17:51.307Z,99838.53
2022-08-26T11:20:29.984Z,99838.25
2022-08-26T11:23:16.936Z,99840.78
2022-08-26T11:26:01.560Z,99838.81
2022-08-26T11:28:46.061Z,99832.00
2022-08-26T11:31:25.832Z,99826.13
2022-08-26T11:33:56.673Z,99824.09
2022-08-26T11:37:03.346Z,99826.94
2022-08-26T11:39:36.603Z,99830.19
2022-08-26T11:42:20.262Z,99816.31
2022-08-26T11:44:49.371Z,99820.97
2022-08-26T11:47:25.057Z,99808.44
2022-08-26T11:50:06.424Z,99800.63
2022-08-26T11:52:32.840Z,99792.28
2022-08-26T11:55:04.021Z,99790.44
2022-08-26T11:57:33.744Z,99786.47
2022-08-26T12:00:01.336Z,99797.50
2022-08-26T12:02:28.477Z,99788.13
2022-08-26T12:04:56.345Z,99789.63
2022-08-26T12:07:27.791Z,99790.38
2022-08-26T12:09:55.217Z,99796.88
2022-08-26T12:12:35.060Z,99800.63
2022-08-26T12:15:11.518Z,99802.13
2022-08-26T12:17:39.873Z,99814.72
2022-08-26T12:20:30.481Z,99814.97
2022-08-26T12:23:00.082Z,99820.31
2022-08-26T12:25:28.034Z,99815.72
2022-08-26T12:28:05.519Z,99812.59
2022-08-26T12:30:32.040Z,99818.91
2022-08-26T12:33:17.999Z,99812.81
2022-08-26T12:35:54.298Z,99810.19
2022-08-26T12:38:23.738Z,99814.72
2022-08-26T12:40:50.369Z,99803.97
2022-08-26T12:43:40.942Z,99795.59
2022-08-26T12:46:11.196Z,99788.78
2022-08-26T12:48:40.288Z,99784.19
2022-08-26T12:51:15.020Z,99769.69
2022-08-26T12:53:43.630Z,99768.16
2022-08-26T12:56:33.336Z,99768.34
2022-08-26T12:59:19.726Z,99770.06
2022-08-26T13:01:46.843Z,99750.34
2022-08-26T13:04:46.159Z,99748.72
2022-08-26T13:07:18.328Z,99736.72
2022-08-26T13:09:44.721Z,99741.78
2022-08-26T13:12:13.938Z,99739.13
2022-08-26T13:14:40.494Z,99730.97
2022-08-26T13:17:06.992Z,99736.63
2022-08-26T13:19:33.407Z,99728.69
2022-08-26T13:22:00.540Z,99724.25
2022-08-26T13:24:33.297Z,99720.91
2022-08-26T13:27:00.919Z,99724.34
2022-08-26T13:29:27.420Z,99727.84
2022-08-26T13:31:55.515Z,99723.59
2022-08-26T13:34:23.506Z,99720.19
2022-08-26T13:36:53.130Z,99713.06
2022-08-26T13:39:20.064Z,99716.09
2022-08-26T13:41:46.739Z,99718.41
2022-08-26T13:44:13.737Z,99723.63
2022-08-26T13:46:40.416Z,99728.22
2022-08-26T13:49:07.206Z,99737.03
2022-08-26T13:51:33.883Z,99738.31
2022-08-26T13:54:00.569Z,99740.22
2022-08-26T13:56:29.503Z,99743.03
2022-08-26T13:58:57.219Z,99741.84
2022-08-26T14:01:23.989Z,99728.66
2022-08-26T14:03:50.565Z,99725.56
2022-08-26T14:06:17.037Z,99727.41
2022-08-26T14:08:44.510Z,99721.03
2022-08-26T14:11:11.540Z,99727.00
2022-08-26T14:13:39.144Z,99727.41
2022-08-26T14:16:10.563Z,99720.75
2022-08-26T14:18:43.661Z,99720.72
2022-08-26T14:21:13.139Z,99718.66
2022-08-26T14:23:40.217Z,99717.78
2022-08-26T14:26:08.286Z,99708.28
2022-08-26T14:28:35.439Z,99711.31
2022-08-26T14:31:03.022Z,99712.34
2022-08-26T14:33:32.651Z,99713.16
2022-08-26T14:36:20.356Z,99707.13
2022-08-26T14:38:46.918Z,99707.72
2022-08-26T14:41:16.367Z,99709.22
2022-08-26T14:43:49.531Z,99712.19
2022-08-26T14:46:18.436Z,99716.19
2022-08-26T14:48:44.924Z,99716.19
2022-08-26T14:51:11.717Z,99723.28
2022-08-26T14:53:56.764Z,99713.38
2022-08-26T14:56:24.144Z,99715.88
2022-08-26T14:58:50.638Z,99728.44
2022-08-26T15:01:17.062Z,99739.22
2022-08-26T15:03:43.749Z,99741.06
2022-08-26T15:06:10.945Z,99743.94
2022-08-26T15:08:38.138Z,99751.16
2022-08-26T15:11:04.636Z,99763.47
2022-08-26T15:13:31.066Z,99759.31
2022-08-26T15:15:57.592Z,99767.13
2022-08-26T15:18:24.116Z,99761.66
2022-08-26T15:20:50.512Z,99761.44
2022-08-26T15:23:17.012Z,99754.81
2022-08-26T15:25:44.750Z,99751.25
2022-08-26T15:28:11.351Z,99751.66
2022-08-26T15:30:38.410Z,99753.91
2022-08-26T15:33:04.895Z,99752.63
2022-08-26T15:35:32.924Z,99753.84
2022-08-26T15:38:02.034Z,99750.53
2022-08-26T15:40:28.553Z,99766.69
2022-08-26T15:43:06.117Z,99765.59
2022-08-26T15:45:41.719Z,99773.44
2022-08-26T15:48:08.135Z,99771.41
2022-08-26T15:50:34.710Z,99761.28
2022-08-26T15:53:01.448Z,99753.88
2022-08-26T15:55:28.316Z,99753.88
2022-08-26T15:57:54.798Z,99756.44
2022-08-26T16:00:21.431Z,99756.53
2022-08-26T16:02:48.268Z,99750.28
2022-08-26T16:05:14.741Z,99764.59
2022-08-26T16:07:41.171Z,99783.94
2022-08-26T16:10:08.009Z,99800.56
2022-08-26T16:12:34.424Z,99816.13
2022-08-26T16:15:01.007Z,99821.94
2022-08-26T16:17:27.624Z,99832.34
2022-08-26T16:19:54.161Z,99834.66
2022-08-26T16:22:20.589Z,99819.72
2022-08-26T16:24:48.701Z,99825.63
2022-08-26T16:27:15.991Z,99823.41
2022-08-26T16:29:42.468Z,99818.78
2022-08-26T16:32:09.130Z,99813.09
2022-08-26T16:34:36.163Z,99826.13
2022-08-26T16:37:02.643Z,99837.66
2022-08-26T16:39:29.037Z,99833.47
2022-08-26T16:41:55.687Z,99833.00
2022-08-26T16:44:22.359Z,99833.22
2022-08-26T16:46:48.938Z,99836.03
2022-08-26T16:49:15.423Z,99847.09
2022-08-26T16:51:41.846Z,99860.09
2022-08-26T16:54:08.796Z,99879.63
2022-08-26T16:56:36.227Z,99900.41
2022-08-26T16:59:04.867Z,99907.84
2022-08-26T17:01:31.893Z,99905.53
2022-08-26T17:03:58.436Z,99904.25
2022-08-26T17:06:24.864Z,99909.50
2022-08-26T17:08:53.010Z,99908.78
2022-08-26T17:11:19.673Z,99910.75
2022-08-26T17:13:46.271Z,99918.78
2022-08-26T17:16:14.413Z,99916.50
2022-08-26T17:18:41.487Z,99920.97
2022-08-26T17:21:11.769Z,99910.91
2022-08-26T17:23:39.578Z,99907.03
2022-08-26T17:26:06.169Z,99914.78
2022-08-26T17:28:33.401Z,99915.00
2022-08-26T17:31:01.077Z,99922.84
2022-08-26T17:33:28.623Z,99924.03
2022-08-26T17:35:55.551Z,99928.41
2022-08-26T17:38:22.697Z,99915.94
2022-08-26T17:40:49.729Z,99913.81
2022-08-26T17:43:17.176Z,99916.31
2022-08-26T17:45:43.943Z,99917.19
2022-08-26T17:48:11.165Z,99917.16
2022-08-26T17:50:39.619Z,99900.28
2022-08-26T17:53:06.049Z,99874.28
2022-08-26T17:55:32.547Z,99871.16
2022-08-26T17:57:59.835Z,99874.81
2022-08-26T18:00:30.428Z,99887.72
2022-08-26T18:02:56.887Z,99891.06
2022-08-26T18:05:23.397Z,99884.34
2022-08-26T18:07:50.042Z,99891.13
2022-08-26T18:10:18.703Z,99911.31
2022-08-26T18:12:45.844Z,99914.44
2022-08-26T18:15:14.507Z,99908.78
2022-08-26T18:17:41.698Z,99888.50
2022-08-26T18:20:15.563Z,99897.25
2022-08-26T18:22:43.608Z,99911.44
2022-08-26T18:25:12.232Z,99933.41
2022-08-26T18:27:39.288Z,99928.69
2022-08-26T18:30:14.578Z,99929.94
2022-08-26T18:32:42.909Z,99933.25
2022-08-26T18:35:10.578Z,99948.84
2022-08-26T18:37:37.502Z,99965.91
2022-08-26T18:40:06.056Z,99963.69
2022-08-26T18:42:32.801Z,99971.84
2022-08-26T18:44:59.208Z,99962.00
2022-08-26T18:47:25.627Z,99941.22
2022-08-26T18:49:52.127Z,99935.75
2022-08-26T18:52:18.608Z,99936.13
2022-08-26T18:54:45.012Z,99936.03
2022-08-26T18:57:12.085Z,99940.69
2022-08-26T18:59:38.607Z,99941.72
2022-08-26T19:02:05.301Z,99927.31
2022-08-26T19:04:31.801Z,99932.66
2022-08-26T19:06:58.301Z,99941.56
2022-08-26T19:09:26.348Z,99933.16
2022-08-26T19:11:53.770Z,99934.72
2022-08-26T19:14:20.353Z,99936.16
2022-08-26T19:16:49.625Z,99939.34
2022-08-26T19:19:16.363Z,99925.38
2022-08-26T19:21:43.187Z,99927.22
2022-08-26T19:24:15.381Z,99928.03
2022-08-26T19:26:44.059Z,99929.34
2022-08-26T19:29:11.422Z,99935.06
2022-08-26T19:31:37.875Z,99943.00
2022-08-26T19:34:05.302Z,99950.22
2022-08-26T19:36:32.528Z,99951.50
2022-08-26T19:39:00.123Z,99956.50
2022-08-26T19:41:37.492Z,99959.88
2022-08-26T19:44:08.209Z,99968.50
2022-08-26T19:46:35.889Z,99969.34
2022-08-26T19:49:02.624Z,99966.69
2022-08-26T19:51:32.398Z,99978.22
2022-08-26T19:54:00.766Z,99976.59
2022-08-26T19:56:28.038Z,99974.75
2022-08-26T19:58:55.510Z,99976.41
2022-08-26T20:01:22.543Z,99980.94
2022-08-26T20:03:49.391Z,99985.13
2022-08-26T20:06:16.927Z,99979.00
2022-08-26T20:08:44.534Z,99984.03
2022-08-26T20:11:15.120Z,99971.84
2022-08-26T20:13:42.560Z,99985.22
2022-08-26T20:16:11.848Z,99987.84
2022-08-26T20:18:59.082Z,99985.03
2022-08-26T20:21:29.298Z,99987.56
2022-08-26T20:24:01.668Z,99986.19
2022-08-26T20:26:30.591Z,99991.47
2022-08-26T20:28:58.036Z,99986.59
2022-08-26T20:31:26.223Z,99983.22
2022-08-26T20:33:53.563Z,99992.69
2022-08-26T20:36:22.528Z,100012.03
2022-08-26T20:38:50.087Z,100022.13
2022-08-26T20:41:17.127Z,100019.81
2022-08-26T20:43:44.304Z,100010.22
2022-08-26T20:46:17.351Z,100018.00
2022-08-26T20:48:45.642Z,100017.31
2022-08-26T20:51:12.268Z,100009.56
2022-08-26T20:53:38.748Z,100006.75
2022-08-26T20:56:07.459Z,100017.44
2022-08-26T20:58:34.742Z,100013.84
2022-08-26T21:01:05.301Z,100013.19
2022-08-26T21:03:33.975Z,100014.66
2022-08-26T21:06:01.418Z,100021.38
2022-08-26T21:08:27.808Z,100027.03
2022-08-26T21:10:54.219Z,100032.47
2022-08-26T21:13:20.664Z,100029.31
2022-08-26T21:15:47.051Z,100001.47
2022-08-26T21:18:13.510Z,99996.41
2022-08-26T21:20:39.997Z,100007.41
2022-08-26T21:23:06.425Z,100016.38
2022-08-26T21:25:32.860Z,100021.19
2022-08-26T21:27:59.347Z,100015.34
2022-08-26T21:30:25.780Z,100012.97
2022-08-26T21:32:52.285Z,100015.22
2022-08-26T21:35:18.701Z,100010.22
2022-08-26T21:37:45.145Z,100019.66
2022-08-26T21:40:11.899Z,100017.06
2022-08-26T21:42:38.529Z,100022.91
2022-08-26T21:45:05.860Z,100029.44
2022-08-26T21:47:32.642Z,100028.78
2022-08-26T21:49:59.311Z,100021.28
2022-08-26T21:52:26.343Z,100028.38
2022-08-26T21:54:57.090Z,100028.25
2022-08-26T21:57:23.511Z,100031.31
2022-08-26T21:59:50.166Z,100034.50
2022-08-26T22:02:16.655Z,100037.97
2022-08-26T22:04:48.576Z,100044.72
2022-08-26T22:07:17.307Z,100047.06
2022-08-26T22:09:44.517Z,100052.84
2022-08-26T22:12:12.323Z,100055.63
2022-08-26T22:14:39.726Z,100052.25
2022-08-26T22:17:06.285Z,100061.00
2022-08-26T22:19:32.747Z,100061.75
2022-08-26T22:22:01.341Z,100064.91
2022-08-26T22:24:27.805Z,100067.16
2022-08-26T22:26:55.620Z,100070.63
2022-08-26T22:29:22.608Z,100068.44
2022-08-26T22:31:49.155Z,100070.25
2022-08-26T22:34:23.763Z,100068.44
2022-08-26T22:36:50.471Z,100055.03
2022-08-26T22:39:20.917Z,100065.94
2022-08-26T22:41:48.761Z,100078.78
2022-08-26T22:44:17.523Z,100086.88
2022-08-26T22:46:45.210Z,100085.38
2022-08-26T22:49:16.319Z,100086.88
2022-08-26T22:51:43.863Z,100080.78
2022-08-26T22:54:10.623Z,100078.59
2022-08-26T22:56:37.171Z,100086.41
2022-08-26T22:59:05.036Z,100083.56
2022-08-26T23:01:35.610Z,100079.72
2022-08-26T23:04:02.770Z,100087.63
2022-08-26T23:06:29.255Z,100095.84
2022-08-26T23:08:55.780Z,100093.91
2022-08-26T23:11:22.793Z,100089.75
2022-08-26T23:13:49.216Z,100080.84
2022-08-26T23:16:15.728Z,100078.69
2022-08-26T23:18:42.374Z,100078.22
2022-08-26T23:21:10.546Z,100075.13
2022-08-26T23:23:38.303Z,100072.00
2022-08-26T23:26:06.896Z,100078.41
2022-08-26T23:28:34.924Z,100074.81
2022-08-26T23:31:01.384Z,100084.22
2022-08-26T23:33:47.795Z,100076.69
2022-08-26T23:36:17.863Z,100081.44
2022-08-26T23:38:44.935Z,100078.56
2022-08-26T23:41:19.072Z,100077.09
2022-08-26T23:43:45.530Z,100084.78
2022-08-26T23:46:12.018Z,100080.09
2022-08-26T23:48:38.580Z,100087.88
2022-08-26T23:51:23.822Z,100091.78
2022-08-26T23:53:50.362Z,100090.31
2022-08-26T23:56:18.143Z,100082.78
2022-08-26T23:58:45.526Z,100077.66
